createdAt,value
2018-12-07T00:16:15.227Z,11.30
2018-12-07T00:21:08.579Z,11.30
2018-12-07T00:26:01.948Z,11.30
2018-12-07T00:30:55.236Z,11.30
2018-12-07T00:41:13.661Z,11.30
2018-12-07T00:46:06.949Z,11.40
2018-12-07T00:51:00.477Z,11.30
2018-12-07T00:55:53.775Z,11.30
2018-12-07T01:17:01.101Z,11.20
2018-12-07T01:21:54.476Z,11.10
2018-12-07T01:26:47.856Z,11.10
2018-12-07T01:31:41.143Z,11.10
2018-12-07T01:52:48.671Z,10.90
2018-12-07T01:57:41.975Z,11.00
2018-12-07T02:02:35.335Z,11.00
2018-12-07T02:07:32.626Z,11.00
2018-12-07T02:12:26.008Z,11.00
2018-12-07T02:22:44.385Z,11.00
2018-12-07T02:32:53.117Z,10.90
2018-12-07T02:37:46.383Z,11.00
2018-12-07T02:42:39.885Z,11.00
2018-12-07T02:47:33.185Z,11.00
2018-12-07T03:08:40.671Z,11.00
2018-12-07T03:13:34.023Z,11.00
2018-12-07T03:18:32.037Z,11.00
2018-12-07T03:23:25.487Z,11.00
2018-12-07T03:28:18.994Z,11.00
2018-12-07T03:49:26.649Z,11.10
2018-12-07T03:54:19.937Z,11.10
2018-12-07T03:59:13.223Z,11.10
2018-12-07T04:04:06.558Z,11.10
2018-12-07T04:08:59.841Z,11.10
2018-12-07T04:24:43.277Z,11.10
2018-12-07T04:29:36.558Z,11.20
2018-12-07T04:34:29.892Z,11.30
2018-12-07T04:39:23.174Z,11.30
2018-12-07T05:00:30.788Z,11.20
2018-12-07T05:05:25.079Z,11.20
2018-12-07T05:10:18.365Z,11.20
2018-12-07T05:15:12.027Z,11.20
2018-12-07T05:20:06.031Z,11.20
2018-12-07T05:41:14.218Z,11.10
2018-12-07T05:46:07.488Z,11.10
2018-12-07T05:51:00.872Z,11.00
2018-12-07T05:55:54.139Z,11.00
2018-12-07T06:17:01.962Z,11.00
2018-12-07T06:21:55.243Z,11.10
2018-12-07T06:26:48.556Z,11.20
2018-12-07T06:31:42.099Z,11.30
2018-12-07T06:36:35.394Z,11.40
2018-12-07T06:57:49.588Z,11.20
2018-12-07T07:02:43.588Z,11.10
2018-12-07T07:07:37.195Z,11.10
2018-12-07T07:12:30.595Z,11.10
2018-12-07T07:17:23.889Z,11.10
2018-12-07T07:22:17.436Z,11.10
2018-12-07T07:27:10.862Z,11.10
2018-12-07T07:32:04.902Z,11.10
2018-12-07T07:36:58.355Z,11.10
2018-12-07T07:58:06.892Z,11.30
2018-12-07T08:03:00.195Z,11.30
2018-12-07T08:07:55.552Z,11.30
2018-12-07T08:12:49.160Z,11.40
2018-12-07T08:33:56.552Z,11.50
2018-12-07T08:38:49.849Z,11.50
2018-12-07T08:43:43.139Z,11.70
2018-12-07T08:48:36.812Z,11.80
2018-12-07T08:53:30.076Z,11.90
2018-12-07T09:09:12.969Z,12.10
2018-12-07T09:14:07.978Z,12.20
2018-12-07T09:19:01.342Z,12.40
2018-12-07T09:23:54.625Z,12.50
2018-12-07T09:45:03.130Z,12.50
2018-12-07T09:49:56.431Z,12.50
2018-12-07T09:54:53.351Z,12.50
2018-12-07T09:59:46.735Z,12.60
2018-12-07T10:04:40.135Z,12.70
2018-12-07T10:09:33.625Z,12.80
2018-12-07T10:14:27.067Z,12.80
2018-12-07T10:19:22.390Z,12.70
2018-12-07T10:24:15.766Z,12.70
2018-12-07T10:45:24.374Z,12.90
2018-12-07T10:50:23.594Z,13.10
2018-12-07T10:55:17.011Z,13.20
2018-12-07T11:11:00.033Z,13.50
2018-12-07T11:15:59.543Z,13.40
2018-12-07T11:20:59.272Z,13.40
2018-12-07T11:47:12.100Z,13.50
2018-12-07T11:52:05.530Z,13.40
2018-12-07T11:56:58.982Z,13.30
2018-12-07T12:01:52.348Z,13.20
2018-12-07T12:06:45.688Z,13.30
2018-12-07T12:27:54.198Z,13.70
2018-12-07T12:32:48.553Z,13.40
2018-12-07T12:37:42.413Z,13.30
2018-12-07T12:42:35.736Z,13.10
2018-12-07T12:47:29.020Z,13.20
2018-12-07T13:03:12.513Z,12.60
2018-12-07T13:08:05.968Z,12.60
2018-12-07T13:12:59.365Z,12.50
2018-12-07T13:17:52.692Z,12.50
2018-12-07T13:38:59.880Z,12.40
2018-12-07T13:43:53.261Z,12.40
2018-12-07T13:48:46.773Z,12.50
2018-12-07T13:53:40.469Z,12.50
2018-12-07T13:58:33.941Z,12.50
2018-12-07T14:19:42.231Z,12.50
2018-12-07T14:24:35.645Z,12.40
2018-12-07T14:29:29.821Z,12.30
2018-12-07T14:34:23.703Z,12.20
2018-12-07T14:55:37.927Z,12.40
2018-12-07T15:00:31.675Z,12.30
2018-12-07T15:05:25.072Z,12.40
2018-12-07T15:10:18.481Z,12.20
2018-12-07T15:31:26.798Z,11.60
2018-12-07T15:36:20.310Z,11.50
2018-12-07T15:41:13.618Z,11.30
2018-12-07T15:46:06.975Z,11.30
2018-12-07T15:51:30.211Z,11.10
2018-12-07T15:56:23.717Z,11.20
2018-12-07T16:01:18.667Z,11.00
2018-12-07T16:06:12.304Z,10.90
2018-12-07T16:11:05.774Z,10.80
2018-12-07T16:32:13.409Z,10.70
2018-12-07T16:37:06.914Z,10.70
2018-12-07T16:42:00.493Z,10.50
2018-12-07T16:46:53.886Z,10.50
2018-12-07T16:51:47.490Z,10.50
2018-12-07T16:56:41.598Z,10.60
2018-12-07T17:01:35.162Z,10.60
2018-12-07T17:06:28.764Z,10.60
2018-12-07T17:27:36.423Z,10.70
2018-12-07T17:32:29.906Z,10.80
2018-12-07T17:37:23.329Z,10.90
2018-12-07T17:42:16.725Z,10.90
2018-12-07T17:47:10.039Z,10.90
2018-12-07T18:08:18.212Z,11.10
2018-12-07T18:13:11.758Z,11.20
2018-12-07T18:18:05.407Z,11.10
2018-12-07T18:22:58.901Z,11.20
2018-12-07T18:27:52.707Z,11.10
2018-12-07T18:43:02.753Z,11.10
2018-12-07T18:47:56.389Z,11.10
2018-12-07T18:52:49.981Z,11.00
2018-12-07T18:57:43.608Z,10.90
2018-12-07T19:02:37.104Z,10.90
2018-12-07T19:23:45.582Z,10.60
2018-12-07T19:28:39.418Z,10.60
2018-12-07T19:33:32.972Z,10.50
2018-12-07T19:38:26.376Z,10.40
2018-12-07T19:43:19.878Z,10.50
2018-12-07T20:04:27.633Z,10.50
2018-12-07T20:09:21.024Z,10.50
2018-12-07T20:14:14.449Z,10.50
2018-12-07T20:19:08.262Z,10.40
2018-12-07T20:24:02.046Z,10.50
2018-12-07T20:39:45.371Z,10.60
2018-12-07T20:44:38.974Z,10.70
2018-12-07T20:49:32.629Z,10.60
2018-12-07T20:54:26.088Z,10.60
2018-12-07T21:15:34.710Z,9.30
2018-12-07T21:20:28.190Z,9.20
2018-12-07T21:25:21.643Z,9.30
2018-12-07T21:30:46.181Z,9.40
2018-12-07T21:36:02.771Z,9.40
2018-12-07T21:40:56.413Z,9.40
2018-12-07T21:45:49.765Z,9.50
2018-12-07T21:50:46.222Z,9.50
2018-12-07T21:55:39.844Z,9.40
2018-12-07T22:16:46.778Z,9.30
2018-12-07T22:21:40.283Z,9.20
2018-12-07T22:26:34.072Z,9.20
2018-12-07T22:31:27.839Z,9.20
2018-12-07T22:36:21.904Z,9.20
2018-12-07T22:57:29.115Z,9.10
2018-12-07T23:02:22.460Z,8.50
2018-12-07T23:07:15.739Z,8.20
2018-12-07T23:12:09.129Z,8.00
2018-12-07T23:33:16.958Z,8.10
2018-12-07T23:38:10.230Z,7.90
2018-12-07T23:48:12.588Z,7.60
2018-12-07T23:53:05.927Z,7.60
2018-12-07T23:57:59.277Z,7.50
